sensor_id;sensor_type;location;lat;lon;timestamp;pressure;altitude;pressure_sealevel;temperature;humidity
70304;BME280;57712;48.752;11.348;2023-07-13T00:01:49;97491.84;;;19.48;100.00
70304;BME280;57712;48.752;11.348;2023-07-13T00:04:17;97516.41;;;19.50;100.00
70304;BME280;57712;48.752;11.348;2023-07-13T00:06:46;97516.00;;;19.42;100.00
70304;BME280;57712;48.752;11.348;2023-07-13T00:09:17;97518.97;;;19.53;100.00
70304;BME280;57712;48.752;11.348;2023-07-13T00:11:45;97516.03;;;19.57;100.00
70304;BME280;57712;48.752;11.348;2023-07-13T00:14:15;97525.59;;;19.41;100.00
70304;BME280;57712;48.752;11.348;2023-07-13T00:16:42;97525.59;;;19.41;100.00
70304;BME280;57712;48.752;11.348;2023-07-13T00:19:12;97530.19;;;19.44;100.00
70304;BME280;57712;48.752;11.348;2023-07-13T00:21:40;97525.91;;;19.58;100.00
70304;BME280;57712;48.752;11.348;2023-07-13T00:24:08;97523.44;;;19.21;100.00
70304;BME280;57712;48.752;11.348;2023-07-13T00:26:40;97520.13;;;19.32;100.00
70304;BME280;57712;48.752;11.348;2023-07-13T00:29:07;97524.56;;;19.15;100.00
70304;BME280;57712;48.752;11.348;2023-07-13T00:31:35;97513.69;;;19.26;100.00
70304;BME280;57712;48.752;11.348;2023-07-13T00:34:03;97512.75;;;19.29;100.00
70304;BME280;57712;48.752;11.348;2023-07-13T00:36:30;97519.56;;;19.43;100.00
70304;BME280;57712;48.752;11.348;2023-07-13T00:38:57;97514.66;;;19.38;100.00
70304;BME280;57712;48.752;11.348;2023-07-13T00:41:24;97517.91;;;19.21;100.00
70304;BME280;57712;48.752;11.348;2023-07-13T00:43:51;97514.66;;;19.38;100.00
70304;BME280;57712;48.752;11.348;2023-07-13T00:46:22;97503.53;;;19.23;100.00
70304;BME280;57712;48.752;11.348;2023-07-13T00:48:50;97520.94;;;19.09;100.00
70304;BME280;57712;48.752;11.348;2023-07-13T00:51:22;97512.44;;;19.27;100.00
70304;BME280;57712;48.752;11.348;2023-07-13T00:53:53;97502.47;;;19.20;100.00
70304;BME280;57712;48.752;11.348;2023-07-13T00:56:22;97502.00;;;19.22;100.00
70304;BME280;57712;48.752;11.348;2023-07-13T00:58:49;97514.41;;;18.97;100.00
70304;BME280;57712;48.752;11.348;2023-07-13T01:01:16;97521.06;;;18.90;100.00
70304;BME280;57712;48.752;11.348;2023-07-13T01:03:43;97524.13;;;18.92;100.00
70304;BME280;57712;48.752;11.348;2023-07-13T01:06:10;97526.50;;;19.09;100.00
70304;BME280;57712;48.752;11.348;2023-07-13T01:08:37;97528.56;;;18.99;100.00
70304;BME280;57712;48.752;11.348;2023-07-13T01:11:05;97532.47;;;18.92;100.00
70304;BME280;57712;48.752;11.348;2023-07-13T01:13:34;97528.19;;;19.06;100.00
70304;BME280;57712;48.752;11.348;2023-07-13T01:16:05;97529.84;;;19.13;100.00
70304;BME280;57712;48.752;11.348;2023-07-13T01:18:38;97526.84;;;19.01;100.00
70304;BME280;57712;48.752;11.348;2023-07-13T01:21:05;97523.19;;;18.95;100.00
70304;BME280;57712;48.752;11.348;2023-07-13T01:23:32;97525.03;;;18.98;100.00
70304;BME280;57712;48.752;11.348;2023-07-13T01:26:00;97524.72;;;18.96;100.00
70304;BME280;57712;48.752;11.348;2023-07-13T01:28:27;97513.81;;;18.93;100.00
70304;BME280;57712;48.752;11.348;2023-07-13T01:30:56;97526.81;;;18.87;100.00
70304;BME280;57712;48.752;11.348;2023-07-13T01:33:24;97524.00;;;19.11;100.00
70304;BME280;57712;48.752;11.348;2023-07-13T01:35:50;97522.47;;;19.10;100.00
70304;BME280;57712;48.752;11.348;2023-07-13T01:38:22;97522.97;;;19.23;100.00
70304;BME280;57712;48.752;11.348;2023-07-13T01:40:51;97519.41;;;19.08;100.00
70304;BME280;57712;48.752;11.348;2023-07-13T01:43:18;97519.41;;;19.08;100.00
70304;BME280;57712;48.752;11.348;2023-07-13T01:45:46;97496.44;;;19.07;100.00
70304;BME280;57712;48.752;11.348;2023-07-13T01:48:13;97486.25;;;19.04;100.00
70304;BME280;57712;48.752;11.348;2023-07-13T01:50:40;97496.72;;;18.85;100.00
70304;BME280;57712;48.752;11.348;2023-07-13T01:53:07;97494.38;;;18.93;100.00
70304;BME280;57712;48.752;11.348;2023-07-13T01:55:34;97492.91;;;18.83;100.00
70304;BME280;57712;48.752;11.348;2023-07-13T01:58:02;97487.25;;;18.77;100.00
70304;BME280;57712;48.752;11.348;2023-07-13T02:00:30;97482.34;;;18.72;100.00
70304;BME280;57712;48.752;11.348;2023-07-13T02:02:57;97478.06;;;18.86;100.00
70304;BME280;57712;48.752;11.348;2023-07-13T02:05:24;97475.50;;;18.82;100.00
70304;BME280;57712;48.752;11.348;2023-07-13T02:07:51;97486.78;;;18.79;100.00
70304;BME280;57712;48.752;11.348;2023-07-13T02:10:19;97487.66;;;18.85;100.00
70304;BME280;57712;48.752;11.348;2023-07-13T02:12:48;97497.75;;;18.73;100.00
70304;BME280;57712;48.752;11.348;2023-07-13T02:15:17;97492.09;;;18.67;100.00
70304;BME280;57712;48.752;11.348;2023-07-13T02:17:44;97489.81;;;18.66;100.00
70304;BME280;57712;48.752;11.348;2023-07-13T02:20:11;97492.25;;;18.64;100.00
70304;BME280;57712;48.752;11.348;2023-07-13T02:22:38;97508.88;;;18.64;100.00
70304;BME280;57712;48.752;11.348;2023-07-13T02:25:05;97502.13;;;18.65;100.00
70304;BME280;57712;48.752;11.348;2023-07-13T02:27:32;97509.81;;;18.70;100.00
70304;BME280;57712;48.752;11.348;2023-07-13T02:29:59;97507.25;;;18.81;100.00
70304;BME280;57712;48.752;11.348;2023-07-13T02:32:26;97501.72;;;18.81;100.00
70304;BME280;57712;48.752;11.348;2023-07-13T02:34:53;97514.63;;;18.84;100.00
70304;BME280;57712;48.752;11.348;2023-07-13T02:37:20;97512.78;;;18.66;100.00
70304;BME280;57712;48.752;11.348;2023-07-13T02:39:47;97522.47;;;18.62;100.00
70304;BME280;57712;48.752;11.348;2023-07-13T02:42:14;97521.88;;;18.67;100.00
70304;BME280;57712;48.752;11.348;2023-07-13T02:44:41;97523.44;;;18.59;100.00
70304;BME280;57712;48.752;11.348;2023-07-13T02:47:08;97527.25;;;18.61;100.00
70304;BME280;57712;48.752;11.348;2023-07-13T02:49:38;97526.78;;;18.63;100.00
70304;BME280;57712;48.752;11.348;2023-07-13T02:52:05;97535.47;;;18.56;100.00
70304;BME280;57712;48.752;11.348;2023-07-13T02:54:31;97549.63;;;18.67;100.00
70304;BME280;57712;48.752;11.348;2023-07-13T02:56:58;97537.34;;;18.50;100.00
70304;BME280;57712;48.752;11.348;2023-07-13T02:59:25;97543.13;;;18.61;100.00
70304;BME280;57712;48.752;11.348;2023-07-13T03:01:51;97542.91;;;18.50;100.00
70304;BME280;57712;48.752;11.348;2023-07-13T03:04:18;97539.47;;;18.55;100.00
70304;BME280;57712;48.752;11.348;2023-07-13T03:06:46;97547.84;;;18.45;100.00
70304;BME280;57712;48.752;11.348;2023-07-13T03:09:13;97552.88;;;18.56;100.00
70304;BME280;57712;48.752;11.348;2023-07-13T03:11:41;97558.47;;;18.47;100.00
70304;BME280;57712;48.752;11.348;2023-07-13T03:14:08;97560.31;;;18.50;100.00
70304;BME280;57712;48.752;11.348;2023-07-13T03:16:35;97554.72;;;18.59;100.00
70304;BME280;57712;48.752;11.348;2023-07-13T03:19:02;97560.66;;;18.76;100.00
70304;BME280;57712;48.752;11.348;2023-07-13T03:21:28;97562.19;;;18.77;100.00
70304;BME280;57712;48.752;11.348;2023-07-13T03:23:55;97561.59;;;18.73;100.00
70304;BME280;57712;48.752;11.348;2023-07-13T03:26:22;97565.84;;;18.83;100.00
70304;BME280;57712;48.752;11.348;2023-07-13T03:28:49;97570.88;;;18.61;100.00
70304;BME280;57712;48.752;11.348;2023-07-13T03:31:19;97569.28;;;18.78;100.00
70304;BME280;57712;48.752;11.348;2023-07-13T03:33:47;97566.75;;;18.65;100.00
70304;BME280;57712;48.752;11.348;2023-07-13T03:36:20;97561.19;;;18.65;100.00
70304;BME280;57712;48.752;11.348;2023-07-13T03:38:48;97560.84;;;18.63;100.00
70304;BME280;57712;48.752;11.348;2023-07-13T03:41:16;97556.44;;;18.57;100.00
70304;BME280;57712;48.752;11.348;2023-07-13T03:43:43;97562.50;;;18.79;100.00
70304;BME280;57712;48.752;11.348;2023-07-13T03:46:10;97560.06;;;18.72;100.00
70304;BME280;57712;48.752;11.348;2023-07-13T03:48:37;97563.13;;;18.74;100.00
70304;BME280;57712;48.752;11.348;2023-07-13T03:51:06;97560.94;;;19.02;100.00
70304;BME280;57712;48.752;11.348;2023-07-13T03:53:35;97566.84;;;18.95;100.00
70304;BME280;57712;48.752;11.348;2023-07-13T03:56:02;97572.06;;;18.78;100.00
70304;BME280;57712;48.752;11.348;2023-07-13T03:58:34;97568.84;;;18.94;100.00
70304;BME280;57712;48.752;11.348;2023-07-13T04:01:02;97565.16;;;18.97;100.00
70304;BME280;57712;48.752;11.348;2023-07-13T04:03:29;97558.09;;;19.11;100.00
70304;BME280;57712;48.752;11.348;2023-07-13T04:06:00;97558.28;;;19.08;100.00
70304;BME280;57712;48.752;11.348;2023-07-13T04:08:31;97559.91;;;19.14;100.00
70304;BME280;57712;48.752;11.348;2023-07-13T04:10:59;97557.47;;;18.92;100.00
70304;BME280;57712;48.752;11.348;2023-07-13T04:13:26;97560.53;;;18.94;100.00
70304;BME280;57712;48.752;11.348;2023-07-13T04:15:53;97563.19;;;18.89;100.00
70304;BME280;57712;48.752;11.348;2023-07-13T04:18:20;97564.78;;;18.81;100.00
70304;BME280;57712;48.752;11.348;2023-07-13T04:20:48;97560.81;;;18.72;100.00
70304;BME280;57712;48.752;11.348;2023-07-13T04:23:17;97568.41;;;18.63;100.00
70304;BME280;57712;48.752;11.348;2023-07-13T04:25:49;97554.53;;;18.63;100.00
70304;BME280;57712;48.752;11.348;2023-07-13T04:28:16;97565.03;;;18.68;100.00
70304;BME280;57712;48.752;11.348;2023-07-13T04:30:44;97568.28;;;18.66;100.00
70304;BME280;57712;48.752;11.348;2023-07-13T04:33:11;97568.34;;;18.48;100.00
70304;BME280;57712;48.752;11.348;2023-07-13T04:35:38;97560.44;;;18.56;100.00
70304;BME280;57712;48.752;11.348;2023-07-13T04:38:05;97567.97;;;18.64;100.00
70304;BME280;57712;48.752;11.348;2023-07-13T04:40:32;97566.97;;;18.77;100.00
70304;BME280;57712;48.752;11.348;2023-07-13T04:42:59;97557.66;;;18.56;100.00
70304;BME280;57712;48.752;11.348;2023-07-13T04:45:26;97564.03;;;18.47;100.00
70304;BME280;57712;48.752;11.348;2023-07-13T04:47:52;97570.06;;;18.45;100.00
70304;BME280;57712;48.752;11.348;2023-07-13T04:50:19;97575.84;;;18.57;100.00
70304;BME280;57712;48.752;11.348;2023-07-13T04:52:52;97579.25;;;18.52;100.00
70304;BME280;57712;48.752;11.348;2023-07-13T04:55:19;97583.84;;;18.55;100.00
70304;BME280;57712;48.752;11.348;2023-07-13T04:57:47;97590.06;;;18.50;100.00
70304;BME280;57712;48.752;11.348;2023-07-13T05:00:14;97597.28;;;18.56;100.00
70304;BME280;57712;48.752;11.348;2023-07-13T05:02:45;97600.69;;;18.51;100.00
70304;BME280;57712;48.752;11.348;2023-07-13T05:05:13;97591.88;;;18.53;100.00
70304;BME280;57712;48.752;11.348;2023-07-13T05:07:39;97601.97;;;18.41;100.00
70304;BME280;57712;48.752;11.348;2023-07-13T05:10:07;97609.47;;;18.50;100.00
70304;BME280;57712;48.752;11.348;2023-07-13T05:12:34;97609.47;;;18.50;100.00
70304;BME280;57712;48.752;11.348;2023-07-13T05:15:01;97608.19;;;18.60;100.00
70304;BME280;57712;48.752;11.348;2023-07-13T05:17:28;97605.47;;;18.51;100.00
70304;BME280;57712;48.752;11.348;2023-07-13T05:19:55;97599.94;;;18.41;100.00
70304;BME280;57712;48.752;11.348;2023-07-13T05:22:22;97600.34;;;18.58;100.00
70304;BME280;57712;48.752;11.348;2023-07-13T05:24:49;97600.50;;;18.55;100.00
70304;BME280;57712;48.752;11.348;2023-07-13T05:27:18;97590.50;;;18.57;100.00
70304;BME280;57712;48.752;11.348;2023-07-13T05:29:45;97598.34;;;18.59;100.00
70304;BME280;57712;48.752;11.348;2023-07-13T05:32:11;97600.50;;;18.55;100.00
70304;BME280;57712;48.752;11.348;2023-07-13T05:34:39;97600.88;;;18.48;100.00
70304;BME280;57712;48.752;11.348;2023-07-13T05:37:06;97596.50;;;18.56;100.00
70304;BME280;57712;48.752;11.348;2023-07-13T05:39:32;97602.53;;;18.87;100.00
70304;BME280;57712;48.752;11.348;2023-07-13T05:41:59;97593.03;;;18.79;100.00
70304;BME280;57712;48.752;11.348;2023-07-13T05:44:25;97600.75;;;19.23;100.00
70304;BME280;57712;48.752;11.348;2023-07-13T05:46:52;97592.41;;;19.23;100.00
70304;BME280;57712;48.752;11.348;2023-07-13T05:49:20;97592.47;;;19.52;100.00
70304;BME280;57712;48.752;11.348;2023-07-13T05:51:46;97587.72;;;19.68;100.00
70304;BME280;57712;48.752;11.348;2023-07-13T05:54:13;97587.25;;;19.69;100.00
70304;BME280;57712;48.752;11.348;2023-07-13T05:56:40;97587.28;;;19.45;100.00
70304;BME280;57712;48.752;11.348;2023-07-13T05:59:06;97589.81;;;19.58;100.00
70304;BME280;57712;48.752;11.348;2023-07-13T06:01:33;97590.81;;;20.14;100.00
70304;BME280;57712;48.752;11.348;2023-07-13T06:04:00;97580.25;;;20.33;100.00
70304;BME280;57712;48.752;11.348;2023-07-13T06:06:27;97583.13;;;20.24;100.00
70304;BME280;57712;48.752;11.348;2023-07-13T06:08:55;97590.19;;;19.51;100.00
70304;BME280;57712;48.752;11.348;2023-07-13T06:11:25;97593.09;;;19.86;100.00
70304;BME280;57712;48.752;11.348;2023-07-13T06:13:52;97588.50;;;19.98;100.00
70304;BME280;57712;48.752;11.348;2023-07-13T06:16:19;97595.41;;;20.46;100.00
70304;BME280;57712;48.752;11.348;2023-07-13T06:18:46;97596.16;;;20.47;100.00
70304;BME280;57712;48.752;11.348;2023-07-13T06:21:19;97601.69;;;20.97;100.00
70304;BME280;57712;48.752;11.348;2023-07-13T06:23:47;97595.34;;;20.61;100.00
70304;BME280;57712;48.752;11.348;2023-07-13T06:26:18;97586.63;;;20.39;100.00
70304;BME280;57712;48.752;11.348;2023-07-13T06:28:45;97593.69;;;20.05;100.00
70304;BME280;57712;48.752;11.348;2023-07-13T06:31:13;97594.34;;;20.44;100.00
70304;BME280;57712;48.752;11.348;2023-07-13T06:33:40;97583.66;;;20.57;100.00
70304;BME280;57712;48.752;11.348;2023-07-13T06:36:07;97588.44;;;20.92;100.00
70304;BME280;57712;48.752;11.348;2023-07-13T06:38:36;97588.09;;;21.04;100.00
70304;BME280;57712;48.752;11.348;2023-07-13T06:41:03;97598.91;;;20.97;100.00
70304;BME280;57712;48.752;11.348;2023-07-13T06:43:30;97598.56;;;21.10;100.00
70304;BME280;57712;48.752;11.348;2023-07-13T06:45:58;97601.50;;;21.67;100.00
70304;BME280;57712;48.752;11.348;2023-07-13T06:48:25;97609.72;;;21.30;100.00
70304;BME280;57712;48.752;11.348;2023-07-13T06:50:52;97612.53;;;21.15;100.00
70304;BME280;57712;48.752;11.348;2023-07-13T06:53:20;97615.88;;;20.99;100.00
70304;BME280;57712;48.752;11.348;2023-07-13T06:55:47;97621.66;;;20.60;100.00
70304;BME280;57712;48.752;11.348;2023-07-13T06:58:18;97627.09;;;20.69;100.00
70304;BME280;57712;48.752;11.348;2023-07-13T07:00:45;97632.31;;;20.97;100.00
70304;BME280;57712;48.752;11.348;2023-07-13T07:03:13;97624.63;;;20.92;100.00
70304;BME280;57712;48.752;11.348;2023-07-13T07:05:40;97639.34;;;20.57;100.00
70304;BME280;57712;48.752;11.348;2023-07-13T07:08:07;97649.50;;;20.31;100.00
70304;BME280;57712;48.752;11.348;2023-07-13T07:10:35;97637.22;;;20.08;100.00
70304;BME280;57712;48.752;11.348;2023-07-13T07:13:03;97638.19;;;20.19;100.00
70304;BME280;57712;48.752;11.348;2023-07-13T07:15:30;97651.41;;;20.39;100.00
70304;BME280;57712;48.752;11.348;2023-07-13T07:17:56;97649.03;;;20.17;100.00
70304;BME280;57712;48.752;11.348;2023-07-13T07:20:23;97645.69;;;20.43;100.00
70304;BME280;57712;48.752;11.348;2023-07-13T07:22:50;97647.75;;;20.78;100.00
70304;BME280;57712;48.752;11.348;2023-07-13T07:25:17;97659.59;;;20.93;100.00
70304;BME280;57712;48.752;11.348;2023-07-13T07:27:44;97659.66;;;21.74;100.00
70304;BME280;57712;48.752;11.348;2023-07-13T07:30:14;97660.78;;;20.71;100.00
70304;BME280;57712;48.752;11.348;2023-07-13T07:32:44;97643.66;;;21.49;100.00
70304;BME280;57712;48.752;11.348;2023-07-13T07:35:15;97656.81;;;21.95;100.00
70304;BME280;57712;48.752;11.348;2023-07-13T07:37:42;97664.19;;;21.98;100.00
70304;BME280;57712;48.752;11.348;2023-07-13T07:40:12;97653.91;;;21.22;100.00
70304;BME280;57712;48.752;11.348;2023-07-13T07:42:42;97655.22;;;21.42;100.00
70304;BME280;57712;48.752;11.348;2023-07-13T07:45:09;97664.47;;;22.20;100.00
70304;BME280;57712;48.752;11.348;2023-07-13T07:47:38;97664.50;;;22.89;100.00
70304;BME280;57712;48.752;11.348;2023-07-13T07:50:08;97671.78;;;22.75;100.00
70304;BME280;57712;48.752;11.348;2023-07-13T07:52:35;97677.97;;;22.27;100.00
70304;BME280;57712;48.752;11.348;2023-07-13T07:55:06;97679.31;;;22.69;100.00
70304;BME280;57712;48.752;11.348;2023-07-13T07:57:36;97672.41;;;22.90;100.00
70304;BME280;57712;48.752;11.348;2023-07-13T08:00:06;97667.44;;;22.42;100.00
70304;BME280;57712;48.752;11.348;2023-07-13T08:02:36;97669.41;;;22.36;100.00
70304;BME280;57712;48.752;11.348;2023-07-13T08:05:07;97688.03;;;22.45;100.00
70304;BME280;57712;48.752;11.348;2023-07-13T08:07:38;97680.59;;;22.99;100.00
70304;BME280;57712;48.752;11.348;2023-07-13T08:10:06;97689.41;;;22.87;100.00
70304;BME280;57712;48.752;11.348;2023-07-13T08:12:38;97696.44;;;22.51;100.00
70304;BME280;57712;48.752;11.348;2023-07-13T08:15:12;97693.38;;;22.48;100.00
70304;BME280;57712;48.752;11.348;2023-07-13T08:17:39;97680.78;;;23.33;100.00
70304;BME280;57712;48.752;11.348;2023-07-13T08:20:07;97693.97;;;23.27;100.00
70304;BME280;57712;48.752;11.348;2023-07-13T08:22:35;97691.63;;;23.20;100.00
70304;BME280;57712;48.752;11.348;2023-07-13T08:25:03;97697.34;;;22.99;100.00
70304;BME280;57712;48.752;11.348;2023-07-13T08:27:29;97704.19;;;22.93;100.00
70304;BME280;57712;48.752;11.348;2023-07-13T08:29:56;97699.25;;;23.14;100.00
70304;BME280;57712;48.752;11.348;2023-07-13T08:32:23;97701.88;;;23.82;100.00
70304;BME280;57712;48.752;11.348;2023-07-13T08:34:51;97700.88;;;23.91;100.00
70304;BME280;57712;48.752;11.348;2023-07-13T08:37:18;97694.44;;;23.20;100.00
70304;BME280;57712;48.752;11.348;2023-07-13T08:39:45;97693.19;;;23.75;100.00
70304;BME280;57712;48.752;11.348;2023-07-13T08:47:15;97696.81;;;22.95;100.00
70304;BME280;57712;48.752;11.348;2023-07-13T08:49:43;97704.53;;;22.48;100.00
70304;BME280;57712;48.752;11.348;2023-07-13T08:54:46;97697.22;;;23.14;100.00
70304;BME280;57712;48.752;11.348;2023-07-13T08:57:18;97703.06;;;23.22;100.00
70304;BME280;57712;48.752;11.348;2023-07-13T08:59:46;97712.84;;;22.95;100.00
70304;BME280;57712;48.752;11.348;2023-07-13T09:02:23;97704.16;;;23.30;97.66
70304;BME280;57712;48.752;11.348;2023-07-13T09:05:00;97701.34;;;23.84;100.00
70304;BME280;57712;48.752;11.348;2023-07-13T09:10:27;97699.75;;;24.42;95.67
70304;BME280;57712;48.752;11.348;2023-07-13T09:15:44;97703.13;;;23.33;96.48
70304;BME280;57712;48.752;11.348;2023-07-13T09:18:35;97703.38;;;23.78;97.34
70304;BME280;57712;48.752;11.348;2023-07-13T09:21:14;97709.03;;;23.89;87.76
70304;BME280;57712;48.752;11.348;2023-07-13T09:23:42;97704.00;;;24.15;78.30
70304;BME280;57712;48.752;11.348;2023-07-13T09:26:21;97710.13;;;24.25;74.26
70304;BME280;57712;48.752;11.348;2023-07-13T09:28:52;97711.72;;;24.65;67.36
70304;BME280;57712;48.752;11.348;2023-07-13T09:31:26;97710.63;;;24.24;67.16
70304;BME280;57712;48.752;11.348;2023-07-13T09:33:56;97709.41;;;24.36;71.77
70304;BME280;57712;48.752;11.348;2023-07-13T09:36:33;97706.38;;;24.79;70.44
70304;BME280;57712;48.752;11.348;2023-07-13T09:39:09;97705.09;;;24.91;69.75
70304;BME280;57712;48.752;11.348;2023-07-13T09:41:55;97700.16;;;25.47;73.46
70304;BME280;57712;48.752;11.348;2023-07-13T09:44:35;97714.00;;;25.00;73.22
70304;BME280;57712;48.752;11.348;2023-07-13T09:47:03;97711.69;;;25.21;65.20
70304;BME280;57712;48.752;11.348;2023-07-13T09:49:35;97705.53;;;25.40;72.51
70304;BME280;57712;48.752;11.348;2023-07-13T09:52:11;97713.75;;;24.59;79.88
70304;BME280;57712;48.752;11.348;2023-07-13T09:54:38;97716.19;;;23.47;72.10
70304;BME280;57712;48.752;11.348;2023-07-13T09:57:19;97712.75;;;24.51;80.30
70304;BME280;57712;48.752;11.348;2023-07-13T09:59:59;97720.63;;;24.53;76.65
70304;BME280;57712;48.752;11.348;2023-07-13T10:02:35;97720.91;;;24.83;83.92
70304;BME280;57712;48.752;11.348;2023-07-13T10:05:07;97713.78;;;24.70;68.73
70304;BME280;57712;48.752;11.348;2023-07-13T10:07:39;97715.53;;;24.51;75.86
70304;BME280;57712;48.752;11.348;2023-07-13T10:10:15;97716.56;;;25.15;69.73
70304;BME280;57712;48.752;11.348;2023-07-13T10:12:43;97723.69;;;24.94;69.12
70304;BME280;57712;48.752;11.348;2023-07-13T10:15:22;97720.50;;;25.65;64.95
70304;BME280;57712;48.752;11.348;2023-07-13T10:17:54;97711.88;;;25.57;59.55
70304;BME280;57712;48.752;11.348;2023-07-13T10:20:22;97720.91;;;24.83;60.80
70304;BME280;57712;48.752;11.348;2023-07-13T10:23:04;97722.81;;;24.09;66.00
70304;BME280;57712;48.752;11.348;2023-07-13T10:25:34;97720.88;;;25.16;60.25
70304;BME280;57712;48.752;11.348;2023-07-13T10:30:41;97725.47;;;24.63;63.81
70304;BME280;57712;48.752;11.348;2023-07-13T10:33:12;97719.84;;;25.19;71.72
70304;BME280;57712;48.752;11.348;2023-07-13T10:35:42;97695.78;;;26.15;52.05
70304;BME280;57712;48.752;11.348;2023-07-13T10:38:15;97718.00;;;25.55;58.30
70304;BME280;57712;48.752;11.348;2023-07-13T10:41:06;97715.72;;;26.59;55.66
70304;BME280;57712;48.752;11.348;2023-07-13T10:43:35;97709.91;;;26.81;54.82
70304;BME280;57712;48.752;11.348;2023-07-13T10:46:11;97720.69;;;27.56;50.88
70304;BME280;57712;48.752;11.348;2023-07-13T10:48:40;97729.06;;;25.14;51.22
70304;BME280;57712;48.752;11.348;2023-07-13T10:51:09;97715.88;;;25.78;55.47
70304;BME280;57712;48.752;11.348;2023-07-13T10:53:38;97710.41;;;26.03;61.68
70304;BME280;57712;48.752;11.348;2023-07-13T10:56:29;97717.75;;;26.11;56.52
70304;BME280;57712;48.752;11.348;2023-07-13T10:59:10;97712.63;;;26.57;55.62
70304;BME280;57712;48.752;11.348;2023-07-13T11:04:13;97707.34;;;27.13;59.13
70304;BME280;57712;48.752;11.348;2023-07-13T11:06:42;97709.03;;;27.46;53.73
70304;BME280;57712;48.752;11.348;2023-07-13T11:09:18;97704.91;;;27.47;52.73
70304;BME280;57712;48.752;11.348;2023-07-13T11:11:45;97704.84;;;27.77;57.74
70304;BME280;57712;48.752;11.348;2023-07-13T11:14:35;97706.91;;;26.32;52.89
70304;BME280;57712;48.752;11.348;2023-07-13T11:22:47;97699.50;;;24.91;51.96
70304;BME280;57712;48.752;11.348;2023-07-13T11:30:40;97694.00;;;26.89;55.75
70304;BME280;57712;48.752;11.348;2023-07-13T11:35:45;97697.94;;;25.18;54.31
70304;BME280;57712;48.752;11.348;2023-07-13T11:38:40;97695.38;;;25.25;55.03
70304;BME280;57712;48.752;11.348;2023-07-13T11:41:16;97695.63;;;26.43;53.31
70304;BME280;57712;48.752;11.348;2023-07-13T11:43:44;97697.56;;;26.60;53.71
70304;BME280;57712;48.752;11.348;2023-07-13T11:46:13;97689.59;;;26.64;54.52
70304;BME280;57712;48.752;11.348;2023-07-13T11:48:41;97690.75;;;26.44;63.24
70304;BME280;57712;48.752;11.348;2023-07-13T11:51:22;97693.91;;;25.82;55.99
70304;BME280;57712;48.752;11.348;2023-07-13T11:53:51;97694.09;;;25.26;53.49
70304;BME280;57712;48.752;11.348;2023-07-13T11:56:22;97687.41;;;26.51;53.65
70304;BME280;57712;48.752;11.348;2023-07-13T11:58:56;97687.59;;;25.76;54.46
70304;BME280;57712;48.752;11.348;2023-07-13T12:01:26;97693.38;;;25.09;56.20
70304;BME280;57712;48.752;11.348;2023-07-13T12:04:01;97691.13;;;26.65;52.84
70304;BME280;57712;48.752;11.348;2023-07-13T12:06:31;97682.31;;;26.03;58.23
70304;BME280;57712;48.752;11.348;2023-07-13T12:09:01;97675.31;;;25.79;51.75
70304;BME280;57712;48.752;11.348;2023-07-13T12:11:30;97677.16;;;25.60;56.80
70304;BME280;57712;48.752;11.348;2023-07-13T12:14:02;97679.94;;;25.66;53.13
70304;BME280;57712;48.752;11.348;2023-07-13T12:16:30;97668.94;;;26.20;51.27
70304;BME280;57712;48.752;11.348;2023-07-13T12:19:00;97675.84;;;25.72;53.33
70304;BME280;57712;48.752;11.348;2023-07-13T12:21:32;97668.78;;;26.07;50.32
70304;BME280;57712;48.752;11.348;2023-07-13T12:24:00;97672.50;;;26.26;54.51
70304;BME280;57712;48.752;11.348;2023-07-13T12:26:30;97658.25;;;24.41;52.37
70304;BME280;57712;48.752;11.348;2023-07-13T12:29:01;97662.28;;;24.85;53.01
70304;BME280;57712;48.752;11.348;2023-07-13T12:31:40;97669.81;;;25.40;50.48
70304;BME280;57712;48.752;11.348;2023-07-13T12:34:11;97667.25;;;25.48;48.24
70304;BME280;57712;48.752;11.348;2023-07-13T12:39:38;97659.94;;;25.92;49.00
70304;BME280;57712;48.752;11.348;2023-07-13T12:42:30;97653.16;;;26.17;46.70
70304;BME280;57712;48.752;11.348;2023-07-13T12:47:39;97658.41;;;25.90;46.17
70304;BME280;57712;48.752;11.348;2023-07-13T12:50:20;97652.84;;;25.79;46.23
70304;BME280;57712;48.752;11.348;2023-07-13T12:52:56;97647.47;;;26.23;47.10
70304;BME280;57712;48.752;11.348;2023-07-13T12:55:26;97637.25;;;26.61;47.25
70304;BME280;57712;48.752;11.348;2023-07-13T12:57:57;97647.44;;;26.88;44.57
70304;BME280;57712;48.752;11.348;2023-07-13T13:00:32;97641.56;;;25.90;43.96
70304;BME280;57712;48.752;11.348;2023-07-13T13:03:06;97632.97;;;27.09;47.41
70304;BME280;57712;48.752;11.348;2023-07-13T13:05:57;97629.19;;;26.46;50.93
70304;BME280;57712;48.752;11.348;2023-07-13T13:08:24;97632.59;;;26.93;44.07
70304;BME280;57712;48.752;11.348;2023-07-13T13:10:50;97635.63;;;26.95;49.52
70304;BME280;57712;48.752;11.348;2023-07-13T13:13:17;97637.13;;;26.48;44.14
70304;BME280;57712;48.752;11.348;2023-07-13T13:15:44;97633.47;;;26.53;46.34
70304;BME280;57712;48.752;11.348;2023-07-13T13:18:17;97621.44;;;26.22;47.18
70304;BME280;57712;48.752;11.348;2023-07-13T13:20:44;97624.03;;;26.80;47.89
70304;BME280;57712;48.752;11.348;2023-07-13T13:23:15;97628.50;;;26.94;45.66
70304;BME280;57712;48.752;11.348;2023-07-13T13:25:46;97625.19;;;26.66;47.88
70304;BME280;57712;48.752;11.348;2023-07-13T13:28:15;97617.34;;;26.59;45.91
70304;BME280;57712;48.752;11.348;2023-07-13T13:30:44;97620.72;;;26.52;46.87
70304;BME280;57712;48.752;11.348;2023-07-13T13:33:13;97612.41;;;26.65;46.69